createdAt,value
2016-06-10T15:20:17.976Z,1004.47
2016-06-10T15:21:26.917Z,1004.51
2016-06-10T15:22:17.857Z,1004.47
2016-06-10T15:23:17.907Z,1004.47
2016-06-10T15:24:17.816Z,1004.45
2016-06-10T15:25:17.788Z,1004.47
2016-06-10T15:26:17.823Z,1004.42
2016-06-10T15:27:17.966Z,1004.43
2016-06-10T15:28:17.766Z,1004.45
2016-06-10T15:30:17.616Z,1004.46
2016-06-10T15:31:17.728Z,1004.4
2016-06-10T15:32:17.669Z,1004.42
2016-06-10T15:33:17.689Z,1004.4
2016-06-10T15:34:17.675Z,1004.42
2016-06-10T15:35:17.773Z,1004.38
2016-06-10T15:36:17.634Z,1004.36
2016-06-10T15:37:17.637Z,1004.34
2016-06-10T15:38:17.624Z,1004.32
2016-06-10T15:39:17.753Z,1004.34
2016-06-10T15:40:17.599Z,1004.27
2016-06-10T15:41:17.884Z,1004.26
2016-06-10T15:43:18.000Z,1004.28
2016-06-10T15:44:20.518Z,1004.27
2016-06-10T15:45:20.521Z,1004.26
2016-06-10T15:47:17.435Z,1004.26
2016-06-10T15:48:17.344Z,1004.24
2016-06-10T15:49:17.518Z,1004.27
2016-06-10T15:50:17.100Z,1004.24
2016-06-10T15:51:17.399Z,1004.26
2016-06-10T15:54:35.612Z,1004.25
2016-06-10T15:55:34.912Z,1004.21
2016-06-10T15:56:35.368Z,1004.26
2016-06-10T15:57:34.558Z,1004.21
2016-06-10T15:58:34.577Z,1004.2
2016-06-10T15:59:34.908Z,1004.2
2016-06-10T16:00:34.787Z,1004.18
2016-06-10T16:01:34.727Z,1004.15
2016-06-10T16:02:34.589Z,1004.17
2016-06-10T16:03:34.670Z,1004.15
2016-06-10T16:04:34.720Z,1004.11
2016-06-10T16:05:34.599Z,1004.12
2016-06-10T16:06:34.414Z,1004.13
2016-06-10T16:07:34.511Z,1004.11
2016-06-10T16:08:34.514Z,1004.06
2016-06-10T16:09:34.564Z,1004.09
2016-06-10T16:10:34.723Z,1004.07
2016-06-10T16:11:34.648Z,1004.07
2016-06-10T16:12:34.479Z,1004.1
2016-06-10T16:14:35.204Z,1004.06
2016-06-10T16:15:35.176Z,1004.05
2016-06-10T16:16:35.132Z,1004.1
2016-06-10T16:17:35.902Z,1004.04
2016-06-10T16:18:35.107Z,1004.07
2016-06-10T16:19:35.063Z,1004.04
2016-06-10T16:21:35.039Z,1004.02
2016-06-10T16:22:35.135Z,1003.96
2016-06-10T16:24:34.813Z,1003.98
2016-06-10T16:25:35.019Z,1003.96
2016-06-10T16:26:35.007Z,1003.93
2016-06-10T16:28:37.825Z,1003.91
2016-06-10T16:29:34.906Z,1003.98
2016-06-10T16:30:34.675Z,1003.96
2016-06-10T16:31:34.632Z,1003.95
2016-06-10T16:32:34.698Z,1003.98
2016-06-10T16:33:34.623Z,1003.98
2016-06-10T16:34:34.719Z,1003.96
2016-06-10T16:35:34.769Z,1003.98
2016-06-10T16:36:34.694Z,1003.95
2016-06-10T16:37:34.791Z,1003.95
2016-06-10T16:38:40.169Z,1003.97
2016-06-10T16:39:40.141Z,1003.96
2016-06-10T16:40:40.128Z,1003.98
2016-06-10T16:41:40.101Z,1003.96
2016-06-10T16:42:40.118Z,1003.99
2016-06-10T16:43:40.091Z,1003.98
2016-06-10T16:44:40.375Z,1003.95
2016-06-10T16:45:40.034Z,1003.99
2016-06-10T16:46:40.209Z,1003.97
2016-06-10T16:47:40.086Z,1003.93
2016-06-10T16:48:40.262Z,1003.94
2016-06-10T16:49:39.984Z,1003.91
2016-06-10T16:50:39.925Z,1003.87
2016-06-10T16:51:39.959Z,1003.86
2016-06-10T16:52:40.118Z,1003.9
2016-06-10T16:53:40.231Z,1003.91
2016-06-10T16:54:39.875Z,1003.9
2016-06-10T16:55:39.877Z,1003.89
2016-06-10T16:56:39.850Z,1003.86
2016-06-10T16:57:40.071Z,1003.88
2016-06-10T16:58:39.808Z,1003.88
2016-06-10T16:59:39.827Z,1003.93
2016-06-10T17:00:39.815Z,1003.9
2016-06-10T17:01:40.021Z,1003.88
2016-06-10T17:02:39.977Z,1003.86
2016-06-10T17:03:39.996Z,1003.91
2016-06-10T17:05:40.002Z,1003.85
2016-06-10T17:07:39.820Z,1003.82
2016-06-10T17:08:39.792Z,1003.77
2016-06-10T17:09:39.639Z,1003.79
2016-06-10T17:10:42.798Z,1003.76
2016-06-10T17:11:39.583Z,1003.79
2016-06-10T17:12:39.851Z,1003.76
2016-06-10T17:13:39.542Z,1003.71
2016-06-10T17:14:39.842Z,1003.72
2016-06-10T17:15:39.752Z,1003.72
2016-06-10T17:16:39.801Z,1003.69
2016-06-10T17:17:39.554Z,1003.68
2016-06-10T17:18:39.714Z,1003.66
2016-06-10T17:19:39.717Z,1003.64
2016-06-10T17:20:39.657Z,1003.64
2016-06-10T17:21:39.817Z,1003.63
2016-06-10T17:22:39.679Z,1003.68
2016-06-10T17:23:40.136Z,1003.65
2016-06-10T17:24:42.670Z,1003.64
2016-06-10T17:25:39.563Z,1003.61
2016-06-10T17:26:39.581Z,1003.61
2016-06-10T17:27:39.600Z,1003.6
2016-06-10T17:28:39.526Z,1003.58
2016-06-10T17:29:39.356Z,1003.58
2016-06-10T17:31:39.551Z,1003.56
2016-06-10T17:32:39.538Z,1003.57
2016-06-10T17:33:39.464Z,1003.63
2016-06-10T17:34:39.435Z,1003.6
2016-06-10T17:36:39.441Z,1003.62
2016-06-10T17:37:39.428Z,1003.61
2016-06-10T17:38:39.415Z,1003.6
2016-06-10T17:39:42.404Z,1003.61
2016-06-10T17:40:39.375Z,1003.6
2016-06-10T17:41:39.378Z,1003.6
2016-06-10T17:43:39.291Z,1003.61
2016-06-10T17:45:39.250Z,1003.65
2016-06-10T17:47:39.257Z,1003.62
2016-06-10T17:48:39.149Z,1003.65
2016-06-10T17:50:42.187Z,1003.65
2016-06-10T17:52:39.161Z,1003.62
2016-06-10T17:53:48.150Z,1003.59
2016-06-10T17:55:39.108Z,1003.6
2016-06-10T17:56:39.049Z,1003.62
2016-06-10T17:57:39.162Z,1003.61
2016-06-10T17:59:38.715Z,1003.6
2016-06-10T18:00:38.984Z,1003.67
2016-06-10T18:01:38.924Z,1003.66
2016-06-10T18:02:38.989Z,1003.65
2016-06-10T18:03:38.775Z,1003.67
2016-06-10T18:04:38.964Z,1003.63
2016-06-10T18:06:38.846Z,1003.62
2016-06-10T18:07:38.676Z,1003.63
2016-06-10T18:08:38.680Z,1003.62
2016-06-10T18:10:38.811Z,1003.6
2016-06-10T18:11:38.611Z,1003.58
2016-06-10T18:13:38.711Z,1003.58
2016-06-10T18:14:38.684Z,1003.57
2016-06-10T18:16:38.704Z,1003.54
2016-06-10T18:17:41.676Z,1003.55
2016-06-10T18:18:38.664Z,1003.55
2016-06-10T18:20:38.686Z,1003.5
2016-06-10T18:21:38.594Z,1003.49
2016-06-10T18:22:38.613Z,1003.5
2016-06-10T18:23:38.804Z,1003.51
2016-06-10T18:24:38.604Z,1003.49
2016-06-10T18:25:38.560Z,1003.46
2016-06-10T18:26:39.032Z,1003.49
2016-06-10T18:27:38.598Z,1003.5
2016-06-10T18:29:38.510Z,1003.44
2016-06-10T18:30:41.982Z,1003.46
2016-06-10T18:31:42.172Z,1003.43
2016-06-10T18:32:42.067Z,1003.45
2016-06-10T18:33:42.085Z,1003.48
2016-06-10T18:34:42.104Z,1003.48
2016-06-10T18:36:45.046Z,1003.43
2016-06-10T18:38:45.053Z,1003.4
2016-06-10T18:40:42.044Z,1003.4
2016-06-10T18:42:42.003Z,1003.43
2016-06-10T18:45:41.888Z,1003.38
2016-06-10T18:46:41.843Z,1003.4
2016-06-10T18:47:41.816Z,1003.42
2016-06-10T18:49:41.853Z,1003.39
2016-06-10T18:50:41.794Z,1003.41
2016-06-10T18:51:44.797Z,1003.41
2016-06-10T18:52:44.753Z,1003.47
2016-06-10T18:53:41.740Z,1003.46
2016-06-10T18:54:41.713Z,1003.44
2016-06-10T18:55:41.652Z,1003.46
2016-06-10T18:56:41.671Z,1003.49
2016-06-10T18:57:41.705Z,1003.51
2016-06-10T18:58:41.725Z,1003.47
2016-06-10T18:59:41.602Z,1003.47
2016-06-10T19:00:41.543Z,1003.46
2016-06-10T19:02:41.580Z,1003.47
2016-06-10T19:03:41.583Z,1003.45
2016-06-10T19:04:41.462Z,1003.42
2016-06-10T19:05:41.402Z,1003.45
2016-06-10T19:06:41.389Z,1003.45
2016-06-10T19:07:41.486Z,1003.42
2016-06-10T19:08:41.458Z,1003.46
2016-06-10T19:09:41.367Z,1003.45
2016-06-10T19:10:44.308Z,1003.5
2016-06-10T19:11:41.279Z,1003.49
2016-06-10T19:12:41.346Z,1003.49
2016-06-10T19:13:41.223Z,1003.49
2016-06-10T19:14:41.335Z,1003.48
2016-06-10T19:15:41.246Z,1003.51
2016-06-10T19:17:41.189Z,1003.5
2016-06-10T19:18:41.161Z,1003.5
2016-06-10T19:19:41.226Z,1003.54
2016-06-10T19:20:44.261Z,1003.53
2016-06-10T19:21:41.107Z,1003.53
2016-06-10T19:22:41.110Z,1003.53
2016-06-10T19:23:41.004Z,1003.55
2016-06-10T19:24:41.038Z,1003.56
2016-06-10T19:25:41.105Z,1003.57
2016-06-10T19:26:41.092Z,1003.54
2016-06-10T19:27:41.266Z,1003.54
2016-06-10T19:28:41.050Z,1003.6
2016-06-10T19:29:41.007Z,1003.58
2016-06-10T19:30:40.901Z,1003.58
2016-06-10T19:31:41.029Z,1003.58
2016-06-10T19:32:40.735Z,1003.58
2016-06-10T19:34:40.913Z,1003.59
2016-06-10T19:35:40.853Z,1003.6
2016-06-10T19:36:40.685Z,1003.61
2016-06-10T19:37:40.859Z,1003.6
2016-06-10T19:38:40.910Z,1003.62
2016-06-10T19:39:43.912Z,1003.61
2016-06-10T19:40:40.557Z,1003.6
2016-06-10T19:41:40.606Z,1003.6
2016-06-10T19:42:40.531Z,1003.61
2016-06-10T19:43:40.832Z,1003.64
2016-06-10T19:45:40.758Z,1003.66
2016-06-10T19:46:40.762Z,1003.63
2016-06-10T19:47:40.719Z,1003.63
2016-06-10T19:48:40.456Z,1003.63
2016-06-10T19:51:40.621Z,1003.68
2016-06-10T19:52:43.563Z,1003.69
2016-06-10T19:53:40.705Z,1003.72
2016-06-10T19:54:41.006Z,1003.68
2016-06-10T19:55:43.494Z,1003.7
2016-06-10T19:56:40.355Z,1003.69
2016-06-10T19:57:41.015Z,1003.72
2016-06-10T19:58:40.455Z,1003.73
2016-06-10T19:59:40.490Z,1003.71
2016-06-10T20:00:40.429Z,1003.71
2016-06-10T20:01:40.433Z,1003.69
2016-06-10T20:02:40.422Z,1003.72
2016-06-10T20:05:40.352Z,1003.66
2016-06-10T20:06:40.386Z,1003.7
2016-06-10T20:07:40.140Z,1003.71
2016-06-10T20:08:40.033Z,1003.73
2016-06-10T20:09:40.037Z,1003.73
2016-06-10T20:10:40.117Z,1003.73
2016-06-10T20:11:40.058Z,1003.72
2016-06-10T20:12:40.264Z,1003.75
2016-06-10T20:13:40.252Z,1003.73
2016-06-10T20:14:43.255Z,1003.77
2016-06-10T20:15:40.117Z,1003.76
2016-06-10T20:16:39.886Z,1003.72
2016-06-10T20:17:40.093Z,1003.75
2016-06-10T20:18:40.157Z,1003.76
2016-06-10T20:19:40.099Z,1003.79
2016-06-10T20:20:39.898Z,1003.75
2016-06-10T20:21:39.995Z,1003.75
2016-06-10T20:22:39.780Z,1003.8
2016-06-10T20:23:40.063Z,1003.81
2016-06-10T20:24:39.723Z,1003.79
2016-06-10T20:25:39.944Z,1003.78
2016-06-10T20:26:39.979Z,1003.79
2016-06-10T20:27:39.748Z,1003.79
2016-06-10T20:29:39.816Z,1003.77
2016-06-10T20:30:39.679Z,1003.78
2016-06-10T20:31:39.666Z,1003.78
2016-06-10T20:32:39.795Z,1003.76
2016-06-10T20:33:39.563Z,1003.73
2016-06-10T20:34:39.520Z,1003.75
2016-06-10T20:35:39.537Z,1003.76
2016-06-10T20:36:39.759Z,1003.78
2016-06-10T20:37:39.512Z,1003.79
2016-06-10T20:38:39.469Z,1003.77
2016-06-10T20:39:39.472Z,1003.79
2016-06-10T20:40:39.413Z,1003.78
2016-06-10T20:41:39.555Z,1003.78
2016-06-10T20:42:39.497Z,1003.8
2016-06-10T20:43:40.375Z,1003.76
2016-06-10T20:44:42.597Z,1003.77
2016-06-10T20:45:39.506Z,1003.78
2016-06-10T20:46:39.556Z,1003.8
2016-06-10T20:47:39.543Z,1003.81
2016-06-10T20:48:39.453Z,1003.83
2016-06-10T20:49:39.284Z,1003.84
2016-06-10T20:50:39.531Z,1003.84
2016-06-10T20:51:39.262Z,1003.83
2016-06-10T20:52:39.305Z,1003.8
2016-06-10T20:53:39.379Z,1003.84
2016-06-10T20:54:39.391Z,1003.81
2016-06-10T20:55:39.652Z,1003.82
2016-06-10T20:56:39.513Z,1003.85
2016-06-10T20:57:39.608Z,1003.81
2016-06-10T20:58:39.564Z,1003.85
2016-06-10T20:59:42.565Z,1003.84
2016-06-10T21:00:39.608Z,1003.84
2016-06-10T21:01:39.381Z,1003.86
2016-06-10T21:03:39.257Z,1003.81
2016-06-10T21:04:39.249Z,1003.83
2016-06-10T21:05:39.256Z,1003.82
2016-06-10T21:06:39.197Z,1003.8
2016-06-10T21:07:39.391Z,1003.82
2016-06-10T21:08:39.427Z,1003.81
2016-06-10T21:09:39.213Z,1003.8
2016-06-10T21:10:39.420Z,1003.82
2016-06-10T21:11:39.267Z,1003.82
2016-06-10T21:12:39.100Z,1003.82
2016-06-10T21:13:39.963Z,1003.83
2016-06-10T21:14:39.216Z,1003.86
2016-06-10T21:15:39.298Z,1003.83
2016-06-10T21:16:39.348Z,1003.85
2016-06-10T21:17:39.008Z,1003.84
2016-06-10T21:18:39.293Z,1003.83
2016-06-10T21:19:38.953Z,1003.85
2016-06-10T21:20:39.003Z,1003.84
2016-06-10T21:21:38.975Z,1003.83
2016-06-10T21:22:38.993Z,1003.83
2016-06-10T21:23:39.200Z,1003.82
2016-06-10T21:25:39.143Z,1003.82
2016-06-10T21:26:38.990Z,1003.82
2016-06-10T21:28:39.574Z,1003.86
2016-06-10T21:29:39.062Z,1003.83
2016-06-10T21:30:39.033Z,1003.85
2016-06-10T21:31:39.006Z,1003.85
2016-06-10T21:32:38.898Z,1003.82
2016-06-10T21:33:38.856Z,1003.83
2016-06-10T21:34:38.796Z,1003.83
2016-06-10T21:35:38.721Z,1003.79
2016-06-10T21:36:38.927Z,1003.8
2016-06-10T21:37:38.758Z,1003.78
2016-06-10T21:38:38.886Z,1003.8
2016-06-10T21:39:38.765Z,1003.79
2016-06-10T21:40:38.861Z,1003.82
2016-06-10T21:41:38.693Z,1003.78
2016-06-10T21:42:38.804Z,1003.78
2016-06-10T21:43:38.746Z,1003.77
2016-06-10T21:44:38.732Z,1003.77
2016-06-10T21:45:38.721Z,1003.75
2016-06-10T21:46:38.739Z,1003.78
2016-06-10T21:47:38.710Z,1003.76
2016-06-10T21:48:38.573Z,1003.76
2016-06-10T21:49:38.670Z,1003.74
2016-06-10T21:50:38.673Z,1003.75
2016-06-10T21:51:38.395Z,1003.73
2016-06-10T21:53:41.557Z,1003.73
2016-06-10T21:54:38.576Z,1003.76
2016-06-10T21:55:38.533Z,1003.73
2016-06-10T21:56:38.489Z,1003.73
2016-06-10T21:57:38.429Z,1003.77
2016-06-10T21:58:42.213Z,1003.75
2016-06-10T21:59:38.356Z,1003.76
2016-06-10T22:00:38.329Z,1003.75
2016-06-10T22:01:38.348Z,1003.78
2016-06-10T22:02:38.429Z,1003.76
2016-06-10T22:03:38.369Z,1003.75
2016-06-10T22:04:38.201Z,1003.73
2016-06-10T22:05:38.267Z,1003.72
2016-06-10T22:06:38.285Z,1003.72
2016-06-10T22:07:38.086Z,1003.67
2016-06-10T22:08:38.056Z,1003.7
2016-06-10T22:09:38.107Z,1003.73
2016-06-10T22:10:38.015Z,1003.71
2016-06-10T22:11:38.191Z,1003.69
2016-06-10T22:13:38.791Z,1003.69
2016-06-10T22:14:38.075Z,1003.68
2016-06-10T22:15:38.156Z,1003.69
2016-06-10T22:16:37.878Z,1003.67
2016-06-10T22:17:37.866Z,1003.66
2016-06-10T22:19:38.028Z,1003.67
2016-06-10T22:20:37.796Z,1003.66
2016-06-10T22:21:37.754Z,1003.7
2016-06-10T22:22:37.959Z,1003.69
2016-06-10T22:23:37.962Z,1003.71
2016-06-10T22:24:37.747Z,1003.68
2016-06-10T22:25:37.859Z,1003.68
2016-06-10T22:26:37.847Z,1003.69
2016-06-10T22:27:37.739Z,1003.68
2016-06-10T22:28:37.868Z,1003.7
2016-06-10T22:30:37.702Z,1003.67
2016-06-10T22:31:37.784Z,1003.71
2016-06-10T22:32:37.803Z,1003.68
2016-06-10T22:33:37.758Z,1003.67
2016-06-10T22:34:46.839Z,1003.65
2016-06-10T22:35:37.765Z,1003.66
2016-06-10T22:36:37.456Z,1003.65
2016-06-10T22:37:37.553Z,1003.65
2016-06-10T22:38:37.445Z,1003.66
2016-06-10T22:39:37.402Z,1003.62
2016-06-10T22:40:37.358Z,1003.63
2016-06-10T22:41:37.361Z,1003.61
2016-06-10T22:42:37.317Z,1003.61
2016-06-10T22:43:37.727Z,1003.61
2016-06-10T22:44:37.386Z,1003.59
2016-06-10T22:45:37.389Z,1003.6
2016-06-10T22:46:37.423Z,1003.63
2016-06-10T22:47:37.490Z,1003.61
2016-06-10T22:48:37.445Z,1003.62
2016-06-10T22:49:37.432Z,1003.62
2016-06-10T22:50:37.467Z,1003.62
2016-06-10T22:51:37.471Z,1003.6
2016-06-10T22:52:37.410Z,1003.6
2016-06-10T22:53:37.367Z,1003.59
2016-06-10T22:54:37.401Z,1003.6
2016-06-10T22:55:37.264Z,1003.61
2016-06-10T22:56:37.220Z,1003.58
2016-06-10T22:57:37.301Z,1003.62
2016-06-10T22:59:37.073Z,1003.61
2016-06-10T23:00:37.201Z,1003.6
2016-06-10T23:01:37.219Z,1003.6
2016-06-10T23:02:37.098Z,1003.61
2016-06-10T23:03:37.195Z,1003.6
2016-06-10T23:04:37.181Z,1003.62
2016-06-10T23:05:37.044Z,1003.61
2016-06-10T23:06:37.048Z,1003.66
2016-06-10T23:07:37.160Z,1003.63
2016-06-10T23:08:37.068Z,1003.61
2016-06-10T23:09:37.041Z,1003.62
2016-06-10T23:10:36.872Z,1003.59
2016-06-10T23:11:37.078Z,1003.63
2016-06-10T23:12:36.956Z,1003.59
2016-06-10T23:13:36.835Z,1003.58
2016-06-10T23:14:36.994Z,1003.62
2016-06-10T23:15:36.794Z,1003.64
2016-06-10T23:16:36.640Z,1003.64
2016-06-10T23:17:36.629Z,1003.64
2016-06-10T23:18:36.615Z,1003.64
2016-06-10T23:19:36.884Z,1003.63
2016-06-10T23:20:36.825Z,1003.64
2016-06-10T23:21:36.875Z,1003.68
2016-06-10T23:22:36.519Z,1003.66
2016-06-10T23:23:36.694Z,1003.68
2016-06-10T23:24:39.790Z,1003.66
2016-06-10T23:25:36.731Z,1003.68
2016-06-10T23:26:36.656Z,1003.67
2016-06-10T23:27:36.440Z,1003.7
2016-06-10T23:28:36.428Z,1003.67
2016-06-10T23:29:36.478Z,1003.65
2016-06-10T23:30:36.683Z,1003.69
2016-06-10T23:31:36.343Z,1003.68
2016-06-10T23:32:36.518Z,1003.67
2016-06-10T23:33:36.350Z,1003.67
2016-06-10T23:34:36.274Z,1003.7
2016-06-10T23:35:36.276Z,1003.7
2016-06-10T23:36:36.249Z,1003.69
2016-06-10T23:37:36.268Z,1003.73
2016-06-10T23:38:36.443Z,1003.69
2016-06-10T23:39:36.430Z,1003.71
2016-06-10T23:40:36.339Z,1003.73
2016-06-10T23:42:39.284Z,1003.75
2016-06-10T23:43:36.240Z,1003.75
2016-06-10T23:44:36.351Z,1003.76
2016-06-10T23:45:36.307Z,1003.75
2016-06-10T23:46:36.311Z,1003.77
2016-06-10T23:47:36.221Z,1003.71
2016-06-10T23:48:36.146Z,1003.71
2016-06-10T23:49:35.976Z,1003.71
2016-06-10T23:50:35.948Z,1003.75
2016-06-10T23:51:35.936Z,1003.72
2016-06-10T23:52:36.017Z,1003.7
2016-06-10T23:53:36.176Z,1003.71
2016-06-10T23:55:36.135Z,1003.68
2016-06-10T23:56:38.935Z,1003.68
2016-06-10T23:57:35.830Z,1003.73
2016-06-10T23:58:35.801Z,1003.7
2016-06-10T23:59:35.819Z,1003.68
